sensor_id;sensor_type;location;lat;lon;timestamp;P1;durP1;ratioP1;P2;durP2;ratioP2
71558;SDS011;59382;43.852;25.952;2023-01-10T00:00:05;19.67;;;11.40;;
71558;SDS011;59382;43.852;25.952;2023-01-10T00:02:31;20.25;;;11.50;;
71558;SDS011;59382;43.852;25.952;2023-01-10T00:04:56;19.65;;;12.00;;
71558;SDS011;59382;43.852;25.952;2023-01-10T00:07:22;19.65;;;10.95;;
71558;SDS011;59382;43.852;25.952;2023-01-10T00:09:47;19.02;;;12.00;;
71558;SDS011;59382;43.852;25.952;2023-01-10T00:12:13;21.25;;;11.68;;
71558;SDS011;59382;43.852;25.952;2023-01-10T00:14:59;26.38;;;12.05;;
71558;SDS011;59382;43.852;25.952;2023-01-10T00:17:24;22.77;;;12.63;;
71558;SDS011;59382;43.852;25.952;2023-01-10T00:19:50;25.92;;;13.27;;
71558;SDS011;59382;43.852;25.952;2023-01-10T00:22:15;29.02;;;12.40;;
71558;SDS011;59382;43.852;25.952;2023-01-10T00:24:43;21.55;;;12.05;;
71558;SDS011;59382;43.852;25.952;2023-01-10T00:27:09;21.33;;;11.68;;
71558;SDS011;59382;43.852;25.952;2023-01-10T00:29:36;24.63;;;12.98;;
71558;SDS011;59382;43.852;25.952;2023-01-10T00:32:02;20.98;;;12.23;;
71558;SDS011;59382;43.852;25.952;2023-01-10T00:34:28;27.33;;;12.55;;
71558;SDS011;59382;43.852;25.952;2023-01-10T00:36:55;19.38;;;11.15;;
71558;SDS011;59382;43.852;25.952;2023-01-10T00:39:20;24.48;;;12.65;;
71558;SDS011;59382;43.852;25.952;2023-01-10T00:41:46;32.17;;;12.82;;
71558;SDS011;59382;43.852;25.952;2023-01-10T00:44:31;22.15;;;12.25;;
71558;SDS011;59382;43.852;25.952;2023-01-10T00:46:56;28.95;;;13.80;;
71558;SDS011;59382;43.852;25.952;2023-01-10T00:49:21;24.10;;;12.65;;
71558;SDS011;59382;43.852;25.952;2023-01-10T00:51:47;22.08;;;13.40;;
71558;SDS011;59382;43.852;25.952;2023-01-10T00:54:13;32.17;;;14.43;;
71558;SDS011;59382;43.852;25.952;2023-01-10T00:56:39;27.80;;;13.93;;
71558;SDS011;59382;43.852;25.952;2023-01-10T00:59:05;24.73;;;14.63;;
71558;SDS011;59382;43.852;25.952;2023-01-10T01:01:31;30.20;;;16.02;;
71558;SDS011;59382;43.852;25.952;2023-01-10T01:03:57;26.83;;;13.35;;
71558;SDS011;59382;43.852;25.952;2023-01-10T01:06:23;28.40;;;14.15;;
71558;SDS011;59382;43.852;25.952;2023-01-10T01:08:49;27.75;;;14.98;;
71558;SDS011;59382;43.852;25.952;2023-01-10T01:11:15;28.13;;;14.38;;
71558;SDS011;59382;43.852;25.952;2023-01-10T01:13:41;25.88;;;14.75;;
71558;SDS011;59382;43.852;25.952;2023-01-10T01:16:06;29.13;;;14.38;;
71558;SDS011;59382;43.852;25.952;2023-01-10T01:18:32;28.02;;;13.23;;
71558;SDS011;59382;43.852;25.952;2023-01-10T01:20:58;30.95;;;15.73;;
71558;SDS011;59382;43.852;25.952;2023-01-10T01:23:28;28.05;;;13.35;;
71558;SDS011;59382;43.852;25.952;2023-01-10T01:25:54;33.40;;;14.80;;
71558;SDS011;59382;43.852;25.952;2023-01-10T01:28:21;27.05;;;14.15;;
71558;SDS011;59382;43.852;25.952;2023-01-10T01:30:47;31.48;;;14.82;;
71558;SDS011;59382;43.852;25.952;2023-01-10T01:33:13;27.27;;;15.15;;
71558;SDS011;59382;43.852;25.952;2023-01-10T01:35:42;29.42;;;15.23;;
71558;SDS011;59382;43.852;25.952;2023-01-10T01:38:08;30.90;;;16.15;;
71558;SDS011;59382;43.852;25.952;2023-01-10T01:40:34;28.20;;;15.25;;
71558;SDS011;59382;43.852;25.952;2023-01-10T01:43:02;24.30;;;14.05;;
71558;SDS011;59382;43.852;25.952;2023-01-10T01:50:35;31.17;;;16.13;;
71558;SDS011;59382;43.852;25.952;2023-01-10T01:53:51;30.45;;;15.30;;
71558;SDS011;59382;43.852;25.952;2023-01-10T01:56:14;29.83;;;15.02;;
71558;SDS011;59382;43.852;25.952;2023-01-10T01:58:45;29.42;;;15.30;;
71558;SDS011;59382;43.852;25.952;2023-01-10T02:01:16;30.48;;;14.88;;
71558;SDS011;59382;43.852;25.952;2023-01-10T02:03:43;28.17;;;15.30;;
71558;SDS011;59382;43.852;25.952;2023-01-10T02:06:11;29.27;;;15.13;;
71558;SDS011;59382;43.852;25.952;2023-01-10T02:08:40;28.02;;;15.60;;
71558;SDS011;59382;43.852;25.952;2023-01-10T02:11:14;29.60;;;15.00;;
71558;SDS011;59382;43.852;25.952;2023-01-10T02:13:40;32.13;;;16.35;;
71558;SDS011;59382;43.852;25.952;2023-01-10T02:16:08;35.58;;;17.67;;
71558;SDS011;59382;43.852;25.952;2023-01-10T02:18:35;31.90;;;16.02;;
71558;SDS011;59382;43.852;25.952;2023-01-10T02:37:16;29.45;;;15.88;;
71558;SDS011;59382;43.852;25.952;2023-01-10T02:39:57;29.45;;;15.73;;
71558;SDS011;59382;43.852;25.952;2023-01-10T02:45:17;30.30;;;16.02;;
71558;SDS011;59382;43.852;25.952;2023-01-10T02:47:49;33.78;;;16.63;;
71558;SDS011;59382;43.852;25.952;2023-01-10T02:52:59;33.92;;;17.13;;
71558;SDS011;59382;43.852;25.952;2023-01-10T02:55:48;36.10;;;17.27;;
71558;SDS011;59382;43.852;25.952;2023-01-10T03:01:29;31.48;;;16.65;;
71558;SDS011;59382;43.852;25.952;2023-01-10T03:09:31;38.03;;;16.65;;
71558;SDS011;59382;43.852;25.952;2023-01-10T03:12:03;29.85;;;16.67;;
71558;SDS011;59382;43.852;25.952;2023-01-10T03:14:38;29.25;;;16.70;;
71558;SDS011;59382;43.852;25.952;2023-01-10T03:17:07;37.13;;;17.00;;
71558;SDS011;59382;43.852;25.952;2023-01-10T03:19:37;32.88;;;16.27;;
71558;SDS011;59382;43.852;25.952;2023-01-10T03:22:07;29.40;;;16.77;;
71558;SDS011;59382;43.852;25.952;2023-01-10T03:24:35;36.47;;;17.50;;
71558;SDS011;59382;43.852;25.952;2023-01-10T03:27:11;29.88;;;17.13;;
71558;SDS011;59382;43.852;25.952;2023-01-10T03:29:45;31.83;;;17.00;;
71558;SDS011;59382;43.852;25.952;2023-01-10T03:32:20;31.75;;;16.17;;
71558;SDS011;59382;43.852;25.952;2023-01-10T03:34:49;27.63;;;15.88;;
71558;SDS011;59382;43.852;25.952;2023-01-10T03:39:57;27.75;;;15.98;;
71558;SDS011;59382;43.852;25.952;2023-01-10T03:45:35;35.80;;;16.58;;
71558;SDS011;59382;43.852;25.952;2023-01-10T03:48:07;29.42;;;15.77;;
71558;SDS011;59382;43.852;25.952;2023-01-10T03:50:35;36.45;;;16.67;;
71558;SDS011;59382;43.852;25.952;2023-01-10T03:53:02;33.05;;;17.15;;
71558;SDS011;59382;43.852;25.952;2023-01-10T03:55:29;30.00;;;14.80;;
71558;SDS011;59382;43.852;25.952;2023-01-10T03:57:55;38.65;;;18.15;;
71558;SDS011;59382;43.852;25.952;2023-01-10T04:00:21;49.60;;;19.63;;
71558;SDS011;59382;43.852;25.952;2023-01-10T04:02:48;41.33;;;19.23;;
71558;SDS011;59382;43.852;25.952;2023-01-10T04:05:13;38.28;;;17.83;;
71558;SDS011;59382;43.852;25.952;2023-01-10T04:07:39;30.63;;;17.17;;
71558;SDS011;59382;43.852;25.952;2023-01-10T04:10:05;27.45;;;15.95;;
71558;SDS011;59382;43.852;25.952;2023-01-10T04:12:31;34.05;;;16.20;;
71558;SDS011;59382;43.852;25.952;2023-01-10T04:14:57;34.05;;;17.05;;
71558;SDS011;59382;43.852;25.952;2023-01-10T04:17:22;33.92;;;16.73;;
71558;SDS011;59382;43.852;25.952;2023-01-10T04:19:48;32.35;;;17.80;;
71558;SDS011;59382;43.852;25.952;2023-01-10T04:22:13;34.20;;;15.90;;
71558;SDS011;59382;43.852;25.952;2023-01-10T04:24:39;30.55;;;16.27;;
71558;SDS011;59382;43.852;25.952;2023-01-10T04:27:05;29.77;;;16.65;;
71558;SDS011;59382;43.852;25.952;2023-01-10T04:29:30;29.30;;;15.57;;
71558;SDS011;59382;43.852;25.952;2023-01-10T04:31:56;32.00;;;17.15;;
71558;SDS011;59382;43.852;25.952;2023-01-10T04:34:22;32.83;;;17.25;;
71558;SDS011;59382;43.852;25.952;2023-01-10T04:36:48;31.75;;;16.50;;
71558;SDS011;59382;43.852;25.952;2023-01-10T04:39:14;31.67;;;16.65;;
71558;SDS011;59382;43.852;25.952;2023-01-10T04:41:40;36.13;;;17.77;;
71558;SDS011;59382;43.852;25.952;2023-01-10T04:44:06;36.38;;;17.50;;
71558;SDS011;59382;43.852;25.952;2023-01-10T04:46:32;33.17;;;17.83;;
71558;SDS011;59382;43.852;25.952;2023-01-10T04:48:58;33.47;;;17.13;;
71558;SDS011;59382;43.852;25.952;2023-01-10T04:51:24;33.08;;;17.02;;
71558;SDS011;59382;43.852;25.952;2023-01-10T04:53:50;29.20;;;15.50;;
71558;SDS011;59382;43.852;25.952;2023-01-10T04:56:16;33.15;;;17.02;;
71558;SDS011;59382;43.852;25.952;2023-01-10T04:58:43;32.80;;;16.75;;
71558;SDS011;59382;43.852;25.952;2023-01-10T05:01:10;32.00;;;16.15;;
71558;SDS011;59382;43.852;25.952;2023-01-10T05:03:40;31.50;;;17.48;;
71558;SDS011;59382;43.852;25.952;2023-01-10T05:06:06;29.65;;;16.42;;
71558;SDS011;59382;43.852;25.952;2023-01-10T05:08:32;32.45;;;17.15;;
71558;SDS011;59382;43.852;25.952;2023-01-10T05:10:58;32.60;;;15.55;;
71558;SDS011;59382;43.852;25.952;2023-01-10T05:13:23;35.85;;;17.10;;
71558;SDS011;59382;43.852;25.952;2023-01-10T05:15:54;28.85;;;15.70;;
71558;SDS011;59382;43.852;25.952;2023-01-10T05:18:20;33.38;;;16.90;;
71558;SDS011;59382;43.852;25.952;2023-01-10T05:20:47;32.50;;;16.25;;
71558;SDS011;59382;43.852;25.952;2023-01-10T05:23:12;35.92;;;16.35;;
71558;SDS011;59382;43.852;25.952;2023-01-10T05:25:38;33.67;;;17.27;;
71558;SDS011;59382;43.852;25.952;2023-01-10T05:28:03;29.27;;;16.33;;
71558;SDS011;59382;43.852;25.952;2023-01-10T05:30:29;28.08;;;15.35;;
71558;SDS011;59382;43.852;25.952;2023-01-10T05:32:54;32.35;;;16.67;;
71558;SDS011;59382;43.852;25.952;2023-01-10T05:35:20;33.03;;;16.95;;
71558;SDS011;59382;43.852;25.952;2023-01-10T05:37:45;30.90;;;17.20;;
71558;SDS011;59382;43.852;25.952;2023-01-10T05:40:11;30.42;;;15.18;;
71558;SDS011;59382;43.852;25.952;2023-01-10T05:42:36;29.25;;;15.35;;
71558;SDS011;59382;43.852;25.952;2023-01-10T05:45:02;26.02;;;15.30;;
71558;SDS011;59382;43.852;25.952;2023-01-10T05:47:28;34.88;;;17.17;;
71558;SDS011;59382;43.852;25.952;2023-01-10T05:49:54;34.33;;;17.65;;
71558;SDS011;59382;43.852;25.952;2023-01-10T05:52:19;30.45;;;15.45;;
71558;SDS011;59382;43.852;25.952;2023-01-10T05:54:45;29.63;;;15.93;;
71558;SDS011;59382;43.852;25.952;2023-01-10T05:57:11;33.03;;;17.63;;
71558;SDS011;59382;43.852;25.952;2023-01-10T05:59:36;32.28;;;16.67;;
71558;SDS011;59382;43.852;25.952;2023-01-10T06:02:02;33.25;;;17.48;;
71558;SDS011;59382;43.852;25.952;2023-01-10T06:04:28;37.53;;;17.85;;
71558;SDS011;59382;43.852;25.952;2023-01-10T06:06:53;39.25;;;19.38;;
71558;SDS011;59382;43.852;25.952;2023-01-10T06:09:18;32.05;;;17.30;;
71558;SDS011;59382;43.852;25.952;2023-01-10T06:11:44;40.72;;;18.02;;
71558;SDS011;59382;43.852;25.952;2023-01-10T06:14:09;40.88;;;20.73;;
71558;SDS011;59382;43.852;25.952;2023-01-10T06:16:35;32.42;;;17.42;;
71558;SDS011;59382;43.852;25.952;2023-01-10T06:19:00;33.10;;;17.55;;
71558;SDS011;59382;43.852;25.952;2023-01-10T06:21:26;35.83;;;16.55;;
71558;SDS011;59382;43.852;25.952;2023-01-10T06:23:51;29.40;;;16.60;;
71558;SDS011;59382;43.852;25.952;2023-01-10T06:26:17;33.88;;;17.77;;
71558;SDS011;59382;43.852;25.952;2023-01-10T06:28:43;30.73;;;16.63;;
71558;SDS011;59382;43.852;25.952;2023-01-10T06:31:09;29.13;;;16.88;;
71558;SDS011;59382;43.852;25.952;2023-01-10T06:33:35;29.70;;;16.48;;
71558;SDS011;59382;43.852;25.952;2023-01-10T06:36:03;32.70;;;16.77;;
71558;SDS011;59382;43.852;25.952;2023-01-10T06:38:29;31.00;;;16.80;;
71558;SDS011;59382;43.852;25.952;2023-01-10T06:40:54;31.13;;;16.85;;
71558;SDS011;59382;43.852;25.952;2023-01-10T06:43:20;32.67;;;16.83;;
71558;SDS011;59382;43.852;25.952;2023-01-10T06:45:45;37.60;;;18.30;;
71558;SDS011;59382;43.852;25.952;2023-01-10T06:48:10;39.67;;;17.90;;
71558;SDS011;59382;43.852;25.952;2023-01-10T06:50:36;33.15;;;18.20;;
71558;SDS011;59382;43.852;25.952;2023-01-10T06:53:02;30.25;;;17.85;;
71558;SDS011;59382;43.852;25.952;2023-01-10T06:55:29;33.72;;;18.42;;
71558;SDS011;59382;43.852;25.952;2023-01-10T06:57:56;35.40;;;17.73;;
71558;SDS011;59382;43.852;25.952;2023-01-10T07:00:26;38.65;;;16.92;;
71558;SDS011;59382;43.852;25.952;2023-01-10T07:02:54;30.95;;;16.25;;
71558;SDS011;59382;43.852;25.952;2023-01-10T07:05:22;34.13;;;18.08;;
71558;SDS011;59382;43.852;25.952;2023-01-10T07:07:47;30.55;;;17.40;;
71558;SDS011;59382;43.852;25.952;2023-01-10T07:10:13;30.95;;;15.35;;
71558;SDS011;59382;43.852;25.952;2023-01-10T07:12:38;30.38;;;16.83;;
71558;SDS011;59382;43.852;25.952;2023-01-10T07:15:04;32.88;;;17.58;;
71558;SDS011;59382;43.852;25.952;2023-01-10T07:17:30;28.67;;;16.65;;
71558;SDS011;59382;43.852;25.952;2023-01-10T07:19:56;34.40;;;17.55;;
71558;SDS011;59382;43.852;25.952;2023-01-10T07:22:22;31.70;;;18.60;;
71558;SDS011;59382;43.852;25.952;2023-01-10T07:24:48;31.42;;;16.80;;
71558;SDS011;59382;43.852;25.952;2023-01-10T07:27:15;35.75;;;17.17;;
71558;SDS011;59382;43.852;25.952;2023-01-10T07:29:41;34.20;;;18.10;;
71558;SDS011;59382;43.852;25.952;2023-01-10T07:32:07;30.95;;;16.80;;
71558;SDS011;59382;43.852;25.952;2023-01-10T07:34:33;33.33;;;16.30;;
71558;SDS011;59382;43.852;25.952;2023-01-10T07:36:59;37.25;;;16.38;;
71558;SDS011;59382;43.852;25.952;2023-01-10T07:39:26;34.35;;;16.90;;
71558;SDS011;59382;43.852;25.952;2023-01-10T07:41:52;33.25;;;17.27;;
71558;SDS011;59382;43.852;25.952;2023-01-10T07:44:18;34.38;;;16.25;;
71558;SDS011;59382;43.852;25.952;2023-01-10T07:49:42;29.17;;;16.55;;
71558;SDS011;59382;43.852;25.952;2023-01-10T07:52:12;33.17;;;17.02;;
71558;SDS011;59382;43.852;25.952;2023-01-10T07:54:40;33.13;;;16.00;;
71558;SDS011;59382;43.852;25.952;2023-01-10T07:57:06;36.67;;;17.67;;
71558;SDS011;59382;43.852;25.952;2023-01-10T07:59:32;38.88;;;18.73;;
71558;SDS011;59382;43.852;25.952;2023-01-10T08:02:08;41.75;;;18.83;;
71558;SDS011;59382;43.852;25.952;2023-01-10T08:04:47;32.00;;;17.52;;
71558;SDS011;59382;43.852;25.952;2023-01-10T08:07:18;25.90;;;15.55;;
71558;SDS011;59382;43.852;25.952;2023-01-10T08:09:50;34.42;;;16.90;;
71558;SDS011;59382;43.852;25.952;2023-01-10T08:12:15;61.13;;;30.50;;
71558;SDS011;59382;43.852;25.952;2023-01-10T08:14:41;53.20;;;26.52;;
71558;SDS011;59382;43.852;25.952;2023-01-10T08:17:07;54.38;;;29.10;;
71558;SDS011;59382;43.852;25.952;2023-01-10T08:19:37;36.28;;;20.70;;
71558;SDS011;59382;43.852;25.952;2023-01-10T08:22:08;35.83;;;18.88;;
71558;SDS011;59382;43.852;25.952;2023-01-10T08:24:37;39.50;;;19.80;;
71558;SDS011;59382;43.852;25.952;2023-01-10T08:27:06;29.98;;;18.10;;
71558;SDS011;59382;43.852;25.952;2023-01-10T08:29:32;44.03;;;22.77;;
71558;SDS011;59382;43.852;25.952;2023-01-10T08:31:58;36.00;;;20.42;;
71558;SDS011;59382;43.852;25.952;2023-01-10T08:34:24;33.33;;;18.42;;
71558;SDS011;59382;43.852;25.952;2023-01-10T08:36:50;34.00;;;18.85;;
71558;SDS011;59382;43.852;25.952;2023-01-10T08:39:17;36.80;;;20.05;;
71558;SDS011;59382;43.852;25.952;2023-01-10T08:41:44;37.90;;;21.17;;
71558;SDS011;59382;43.852;25.952;2023-01-10T08:44:13;40.17;;;19.88;;
71558;SDS011;59382;43.852;25.952;2023-01-10T08:46:51;41.03;;;21.17;;
71558;SDS011;59382;43.852;25.952;2023-01-10T08:49:17;37.55;;;20.90;;
71558;SDS011;59382;43.852;25.952;2023-01-10T08:51:43;57.35;;;27.10;;
71558;SDS011;59382;43.852;25.952;2023-01-10T08:54:19;49.67;;;25.98;;
71558;SDS011;59382;43.852;25.952;2023-01-10T08:56:49;65.57;;;32.22;;
71558;SDS011;59382;43.852;25.952;2023-01-10T08:59:14;44.15;;;22.23;;
71558;SDS011;59382;43.852;25.952;2023-01-10T09:04:16;41.17;;;19.50;;
71558;SDS011;59382;43.852;25.952;2023-01-10T09:06:45;82.68;;;38.53;;
71558;SDS011;59382;43.852;25.952;2023-01-10T09:09:11;62.25;;;30.83;;
71558;SDS011;59382;43.852;25.952;2023-01-10T09:11:39;49.50;;;23.98;;
71558;SDS011;59382;43.852;25.952;2023-01-10T09:14:05;35.95;;;19.10;;
71558;SDS011;59382;43.852;25.952;2023-01-10T09:16:31;37.58;;;23.10;;
71558;SDS011;59382;43.852;25.952;2023-01-10T09:18:57;36.30;;;20.80;;
71558;SDS011;59382;43.852;25.952;2023-01-10T09:21:25;53.28;;;32.95;;
71558;SDS011;59382;43.852;25.952;2023-01-10T09:23:52;39.08;;;21.02;;
71558;SDS011;59382;43.852;25.952;2023-01-10T09:26:17;33.00;;;20.00;;
71558;SDS011;59382;43.852;25.952;2023-01-10T09:28:43;33.83;;;18.48;;
71558;SDS011;59382;43.852;25.952;2023-01-10T09:31:08;41.17;;;19.25;;
71558;SDS011;59382;43.852;25.952;2023-01-10T09:33:35;29.85;;;17.20;;
71558;SDS011;59382;43.852;25.952;2023-01-10T09:36:01;29.73;;;18.42;;
71558;SDS011;59382;43.852;25.952;2023-01-10T09:38:27;36.78;;;18.00;;
71558;SDS011;59382;43.852;25.952;2023-01-10T09:40:56;32.63;;;17.63;;
71558;SDS011;59382;43.852;25.952;2023-01-10T09:52:12;33.25;;;19.13;;
71558;SDS011;59382;43.852;25.952;2023-01-10T09:55:02;32.60;;;18.38;;
71558;SDS011;59382;43.852;25.952;2023-01-10T09:57:55;39.17;;;19.13;;
71558;SDS011;59382;43.852;25.952;2023-01-10T10:00:32;30.23;;;19.58;;
71558;SDS011;59382;43.852;25.952;2023-01-10T10:03:22;34.60;;;18.13;;
71558;SDS011;59382;43.852;25.952;2023-01-10T10:05:54;31.35;;;19.17;;
71558;SDS011;59382;43.852;25.952;2023-01-10T10:08:24;31.58;;;18.20;;
71558;SDS011;59382;43.852;25.952;2023-01-10T10:22:19;39.30;;;22.80;;
71558;SDS011;59382;43.852;25.952;2023-01-10T10:33:35;35.33;;;19.73;;
71558;SDS011;59382;43.852;25.952;2023-01-10T10:36:23;34.60;;;19.00;;
71558;SDS011;59382;43.852;25.952;2023-01-10T10:38:55;33.28;;;16.98;;
71558;SDS011;59382;43.852;25.952;2023-01-10T10:41:37;28.75;;;17.30;;
71558;SDS011;59382;43.852;25.952;2023-01-10T10:47:18;31.63;;;18.33;;
71558;SDS011;59382;43.852;25.952;2023-01-10T10:49:57;33.45;;;17.90;;
71558;SDS011;59382;43.852;25.952;2023-01-10T10:52:57;30.60;;;18.15;;
71558;SDS011;59382;43.852;25.952;2023-01-10T10:55:30;39.90;;;20.40;;
71558;SDS011;59382;43.852;25.952;2023-01-10T10:57:59;43.17;;;20.30;;
71558;SDS011;59382;43.852;25.952;2023-01-10T11:00:27;34.45;;;18.75;;
71558;SDS011;59382;43.852;25.952;2023-01-10T11:02:57;41.00;;;20.10;;
71558;SDS011;59382;43.852;25.952;2023-01-10T11:05:31;44.33;;;22.58;;
71558;SDS011;59382;43.852;25.952;2023-01-10T11:08:03;49.90;;;26.13;;
71558;SDS011;59382;43.852;25.952;2023-01-10T11:10:41;54.05;;;23.38;;
71558;SDS011;59382;43.852;25.952;2023-01-10T11:15:49;45.05;;;21.50;;
71558;SDS011;59382;43.852;25.952;2023-01-10T11:18:20;39.25;;;20.80;;
71558;SDS011;59382;43.852;25.952;2023-01-10T11:23:26;34.28;;;18.52;;
71558;SDS011;59382;43.852;25.952;2023-01-10T11:26:10;35.05;;;17.85;;
71558;SDS011;59382;43.852;25.952;2023-01-10T11:31:56;35.13;;;18.75;;
71558;SDS011;59382;43.852;25.952;2023-01-10T11:34:30;33.60;;;16.92;;
71558;SDS011;59382;43.852;25.952;2023-01-10T11:37:03;34.80;;;18.73;;
71558;SDS011;59382;43.852;25.952;2023-01-10T11:39:45;29.13;;;17.23;;
71558;SDS011;59382;43.852;25.952;2023-01-10T11:47:44;23.55;;;12.73;;
71558;SDS011;59382;43.852;25.952;2023-01-10T11:50:18;23.65;;;13.52;;
71558;SDS011;59382;43.852;25.952;2023-01-10T11:52:51;26.00;;;13.05;;
71558;SDS011;59382;43.852;25.952;2023-01-10T11:55:18;21.17;;;12.40;;
71558;SDS011;59382;43.852;25.952;2023-01-10T11:57:53;22.60;;;11.35;;
71558;SDS011;59382;43.852;25.952;2023-01-10T12:00:20;22.23;;;13.10;;
71558;SDS011;59382;43.852;25.952;2023-01-10T12:02:51;15.43;;;11.20;;
71558;SDS011;59382;43.852;25.952;2023-01-10T12:05:19;24.48;;;12.60;;
71558;SDS011;59382;43.852;25.952;2023-01-10T12:07:56;26.92;;;11.70;;
71558;SDS011;59382;43.852;25.952;2023-01-10T12:10:27;17.38;;;11.63;;
71558;SDS011;59382;43.852;25.952;2023-01-10T12:12:54;16.98;;;10.23;;
71558;SDS011;59382;43.852;25.952;2023-01-10T12:17:55;19.25;;;10.38;;
71558;SDS011;59382;43.852;25.952;2023-01-10T12:20:25;19.08;;;10.65;;
71558;SDS011;59382;43.852;25.952;2023-01-10T12:23:03;20.65;;;9.77;;
71558;SDS011;59382;43.852;25.952;2023-01-10T12:25:40;15.07;;;9.23;;
71558;SDS011;59382;43.852;25.952;2023-01-10T12:28:22;15.10;;;9.73;;
71558;SDS011;59382;43.852;25.952;2023-01-10T12:30:51;19.30;;;10.18;;
71558;SDS011;59382;43.852;25.952;2023-01-10T12:33:23;15.75;;;9.65;;
71558;SDS011;59382;43.852;25.952;2023-01-10T12:41:27;12.07;;;8.20;;
71558;SDS011;59382;43.852;25.952;2023-01-10T12:44:19;16.08;;;9.25;;
71558;SDS011;59382;43.852;25.952;2023-01-10T12:46:54;13.48;;;8.73;;
71558;SDS011;59382;43.852;25.952;2023-01-10T12:49:23;14.15;;;9.55;;
71558;SDS011;59382;43.852;25.952;2023-01-10T12:51:49;15.85;;;9.27;;
71558;SDS011;59382;43.852;25.952;2023-01-10T12:54:20;16.98;;;9.63;;
71558;SDS011;59382;43.852;25.952;2023-01-10T12:56:52;16.60;;;9.68;;
71558;SDS011;59382;43.852;25.952;2023-01-10T12:59:29;17.88;;;10.05;;
71558;SDS011;59382;43.852;25.952;2023-01-10T13:02:03;18.05;;;9.48;;
71558;SDS011;59382;43.852;25.952;2023-01-10T13:04:35;13.48;;;8.27;;
71558;SDS011;59382;43.852;25.952;2023-01-10T13:07:03;19.23;;;8.80;;
71558;SDS011;59382;43.852;25.952;2023-01-10T13:09:29;18.08;;;9.02;;
71558;SDS011;59382;43.852;25.952;2023-01-10T13:14:58;14.70;;;9.05;;
71558;SDS011;59382;43.852;25.952;2023-01-10T13:17:58;15.30;;;8.77;;
71558;SDS011;59382;43.852;25.952;2023-01-10T13:22:53;14.07;;;8.48;;
71558;SDS011;59382;43.852;25.952;2023-01-10T13:25:24;12.13;;;8.45;;
71558;SDS011;59382;43.852;25.952;2023-01-10T13:27:57;13.88;;;9.20;;
71558;SDS011;59382;43.852;25.952;2023-01-10T13:33:00;15.88;;;9.50;;
71558;SDS011;59382;43.852;25.952;2023-01-10T13:35:36;14.10;;;8.52;;
71558;SDS011;59382;43.852;25.952;2023-01-10T13:38:17;14.38;;;8.40;;
71558;SDS011;59382;43.852;25.952;2023-01-10T13:40:56;12.88;;;7.82;;
71558;SDS011;59382;43.852;25.952;2023-01-10T13:49:25;14.18;;;8.88;;
71558;SDS011;59382;43.852;25.952;2023-01-10T13:51:36;11.90;;;8.55;;
71558;SDS011;59382;43.852;25.952;2023-01-10T13:56:44;14.43;;;8.55;;
71558;SDS011;59382;43.852;25.952;2023-01-10T13:59:11;18.13;;;9.50;;
71558;SDS011;59382;43.852;25.952;2023-01-10T14:05:16;16.10;;;9.63;;
71558;SDS011;59382;43.852;25.952;2023-01-10T14:07:44;11.38;;;8.43;;
71558;SDS011;59382;43.852;25.952;2023-01-10T14:12:55;13.70;;;8.38;;
71558;SDS011;59382;43.852;25.952;2023-01-10T14:15:27;18.08;;;8.93;;
71558;SDS011;59382;43.852;25.952;2023-01-10T14:18:02;19.73;;;9.00;;
71558;SDS011;59382;43.852;25.952;2023-01-10T14:20:32;19.85;;;10.20;;
71558;SDS011;59382;43.852;25.952;2023-01-10T14:25:41;15.65;;;9.20;;
71558;SDS011;59382;43.852;25.952;2023-01-10T14:28:15;15.75;;;9.43;;
71558;SDS011;59382;43.852;25.952;2023-01-10T14:30:58;15.10;;;9.23;;
71558;SDS011;59382;43.852;25.952;2023-01-10T14:33:30;21.58;;;12.55;;
71558;SDS011;59382;43.852;25.952;2023-01-10T14:35:59;21.23;;;12.55;;
71558;SDS011;59382;43.852;25.952;2023-01-10T14:38:29;18.67;;;10.25;;
71558;SDS011;59382;43.852;25.952;2023-01-10T14:41:01;17.42;;;10.68;;
71558;SDS011;59382;43.852;25.952;2023-01-10T14:43:41;20.73;;;10.85;;
71558;SDS011;59382;43.852;25.952;2023-01-10T14:46:32;20.92;;;9.82;;
71558;SDS011;59382;43.852;25.952;2023-01-10T14:51:55;17.73;;;9.88;;
71558;SDS011;59382;43.852;25.952;2023-01-10T14:54:36;18.30;;;9.40;;
71558;SDS011;59382;43.852;25.952;2023-01-10T14:57:02;20.80;;;9.40;;
71558;SDS011;59382;43.852;25.952;2023-01-10T14:59:31;18.55;;;10.20;;
71558;SDS011;59382;43.852;25.952;2023-01-10T15:02:09;17.67;;;10.32;;
71558;SDS011;59382;43.852;25.952;2023-01-10T15:04:47;14.27;;;9.80;;
71558;SDS011;59382;43.852;25.952;2023-01-10T15:07:18;18.33;;;9.45;;
71558;SDS011;59382;43.852;25.952;2023-01-10T15:09:47;22.20;;;10.00;;
71558;SDS011;59382;43.852;25.952;2023-01-10T15:12:17;17.23;;;9.88;;
71558;SDS011;59382;43.852;25.952;2023-01-10T15:14:46;17.42;;;10.77;;
71558;SDS011;59382;43.852;25.952;2023-01-10T15:17:14;17.58;;;9.85;;
71558;SDS011;59382;43.852;25.952;2023-01-10T15:19:42;16.95;;;9.85;;
71558;SDS011;59382;43.852;25.952;2023-01-10T15:22:31;15.57;;;8.95;;
71558;SDS011;59382;43.852;25.952;2023-01-10T15:25:00;17.83;;;8.77;;
71558;SDS011;59382;43.852;25.952;2023-01-10T15:27:27;11.38;;;8.55;;
71558;SDS011;59382;43.852;25.952;2023-01-10T15:29:54;14.18;;;8.88;;
71558;SDS011;59382;43.852;25.952;2023-01-10T15:34:52;18.63;;;9.10;;
71558;SDS011;59382;43.852;25.952;2023-01-10T15:37:23;15.48;;;9.13;;
71558;SDS011;59382;43.852;25.952;2023-01-10T15:39:52;15.48;;;9.88;;
71558;SDS011;59382;43.852;25.952;2023-01-10T15:42:19;16.40;;;9.40;;
71558;SDS011;59382;43.852;25.952;2023-01-10T15:44:47;13.63;;;8.60;;
71558;SDS011;59382;43.852;25.952;2023-01-10T15:52:50;19.00;;;9.45;;
71558;SDS011;59382;43.852;25.952;2023-01-10T15:55:33;17.95;;;9.73;;
71558;SDS011;59382;43.852;25.952;2023-01-10T16:00:55;21.85;;;10.98;;
71558;SDS011;59382;43.852;25.952;2023-01-10T16:03:33;16.63;;;9.65;;
71558;SDS011;59382;43.852;25.952;2023-01-10T16:06:01;18.30;;;9.55;;
71558;SDS011;59382;43.852;25.952;2023-01-10T16:08:33;14.18;;;8.82;;
71558;SDS011;59382;43.852;25.952;2023-01-10T16:11:00;12.77;;;8.80;;
71558;SDS011;59382;43.852;25.952;2023-01-10T16:13:28;11.82;;;8.25;;
71558;SDS011;59382;43.852;25.952;2023-01-10T16:15:58;13.60;;;8.23;;
71558;SDS011;59382;43.852;25.952;2023-01-10T16:18:25;12.38;;;8.20;;
71558;SDS011;59382;43.852;25.952;2023-01-10T16:20:52;9.93;;;7.60;;
71558;SDS011;59382;43.852;25.952;2023-01-10T16:23:27;14.15;;;7.97;;
71558;SDS011;59382;43.852;25.952;2023-01-10T16:25:59;16.50;;;8.38;;
71558;SDS011;59382;43.852;25.952;2023-01-10T16:28:28;10.25;;;7.03;;
71558;SDS011;59382;43.852;25.952;2023-01-10T16:30:57;11.02;;;8.10;;
71558;SDS011;59382;43.852;25.952;2023-01-10T16:33:23;17.67;;;10.18;;
71558;SDS011;59382;43.852;25.952;2023-01-10T16:35:55;24.10;;;13.00;;
71558;SDS011;59382;43.852;25.952;2023-01-10T16:38:22;26.20;;;14.63;;
71558;SDS011;59382;43.852;25.952;2023-01-10T16:43:24;19.30;;;12.57;;
71558;SDS011;59382;43.852;25.952;2023-01-10T16:45:54;21.65;;;12.85;;